Time;durP1;ratioP1;P1;durP2;ratioP2;P2;SDS_P1;SDS_P2;PMS_P1;PMS_P2;Temp;Humidity;BMP_temperature;BMP_pressure;BME280_temperature;BME280_humidity;BME280_pressure;Samples;Min_cycle;Max_cycle;Signal;HPM_P1;HPM_P2
2023/06/08 00:05:16;;;;;;;16.33;10.38;;;;;;;22.30;100.00;100788.06;20809663;28;20144;-72
2023/06/08 00:15:39;;;;;;;15.55;10.70;;;;;;;22.27;100.00;100789.94;20811536;28;20053;-74
2023/06/08 00:26:03;;;;;;;17.27;11.30;;;;;;;22.07;100.00;100783.41;20806660;28;20058;-74
2023/06/08 00:36:26;;;;;;;21.00;11.43;;;;;;;22.12;100.00;100776.97;20797342;28;20393;-74
2023/06/08 00:46:50;;;;;;;16.05;11.18;;;;;;;21.96;100.00;100769.44;20813027;28;20049;-74
2023/06/08 00:57:15;;;;;;;16.90;11.60;;;;;;;22.03;100.00;100789.81;20825232;28;20493;-74
2023/06/08 01:07:49;;;;;;;16.77;10.35;;;;;;;22.08;100.00;100788.75;20810051;28;20076;-74
2023/06/08 01:18:17;;;;;;;14.27;10.70;;;;;;;22.08;100.00;100777.13;20805461;28;20046;-74
2023/06/08 01:28:42;;;;;;;17.70;11.52;;;;;;;22.12;100.00;100765.34;20819657;28;20073;-74
2023/06/08 01:39:11;;;;;;;17.15;11.70;;;;;;;22.06;100.00;100785.22;20818701;28;20383;-75
2023/06/08 01:49:36;;;;;;;17.50;11.88;;;;;;;21.72;100.00;100765.66;20818066;28;20363;-73
2023/06/08 01:59:59;;;;;;;20.02;14.13;;;;;;;21.47;100.00;100787.88;20816678;28;20132;-73
2023/06/08 02:10:23;;;;;;;25.52;18.38;;;;;;;21.46;100.00;100793.31;20819680;28;20087;-73
2023/06/08 02:20:46;;;;;;;24.45;15.95;;;;;;;21.32;100.00;100804.44;20818187;28;20038;-73
2023/06/08 02:31:12;;;;;;;22.45;16.65;;;;;;;21.26;100.00;100815.34;20801403;28;20037;-74
2023/06/08 02:41:34;;;;;;;26.35;18.60;;;;;;;21.40;100.00;100833.75;20802301;28;20207;-73
2023/06/08 02:51:59;;;;;;;27.92;19.63;;;;;;;21.44;100.00;100840.81;20800987;28;20046;-73
2023/06/08 03:02:21;;;;;;;24.88;16.08;;;;;;;21.28;100.00;100826.91;20797423;28;20115;-73
2023/06/08 03:12:45;;;;;;;23.48;16.38;;;;;;;21.25;100.00;100823.44;20798885;28;20045;-73
2023/06/08 03:23:09;;;;;;;22.20;17.05;;;;;;;21.16;100.00;100816.50;20799081;28;20437;-73
2023/06/08 03:33:35;;;;;;;22.70;17.10;;;;;;;21.34;100.00;100824.06;20785240;28;20051;-73
2023/06/08 03:44:00;;;;;;;22.45;14.35;;;;;;;21.30;100.00;100835.81;20794845;28;20045;-73
2023/06/08 03:54:27;;;;;;;20.25;14.70;;;;;;;21.41;100.00;100836.38;20800821;28;20072;-73
2023/06/08 04:04:39;;;;;;;21.10;15.75;;;;;;;21.60;100.00;100842.13;20815273;28;20127;-73
2023/06/08 04:15:03;;;;;;;21.13;15.68;;;;;;;21.67;100.00;100843.72;20781961;28;20060;-73
2023/06/08 04:25:27;;;;;;;25.02;13.80;;;;;;;21.74;100.00;100853.38;20797774;28;20044;-73
2023/06/08 04:35:52;;;;;;;18.52;13.85;;;;;;;22.02;100.00;100850.78;20810517;28;21926;-73
2023/06/08 04:46:15;;;;;;;15.73;13.45;;;;;;;22.14;100.00;100850.41;20801502;28;20049;-73
2023/06/08 04:56:41;;;;;;;19.05;14.02;;;;;;;22.44;100.00;100869.22;20827855;28;20398;-73
2023/06/08 05:07:04;;;;;;;14.32;10.40;;;;;;;23.13;100.00;100874.13;20775486;28;20050;-74
2023/06/08 05:17:28;;;;;;;16.08;10.20;;;;;;;23.70;100.00;100870.31;20797062;28;20389;-74
2023/06/08 05:27:51;;;;;;;15.25;9.00;;;;;;;24.03;100.00;100889.75;20813501;28;20780;-73
2023/06/08 05:37:55;;;;;;;16.65;9.48;;;;;;;24.00;100.00;100866.50;20810269;28;20238;-73
2023/06/08 05:48:18;;;;;;;15.30;9.25;;;;;;;24.33;100.00;100864.34;20819260;28;20041;-75
2023/06/08 05:58:42;;;;;;;15.25;8.02;;;;;;;24.71;100.00;100865.50;20796238;28;20053;-74
2023/06/08 06:09:07;;;;;;;20.45;7.57;;;;;;;25.41;100.00;100860.69;20807559;28;20493;-75
2023/06/08 06:19:36;;;;;;;17.02;7.30;;;;;;;26.07;100.00;100861.31;20783133;28;20041;-75
2023/06/08 06:29:58;;;;;;;15.82;7.63;;;;;;;26.88;100.00;100860.13;20805124;28;20055;-75
2023/06/08 06:40:23;;;;;;;12.73;7.35;;;;;;;26.36;100.00;100851.84;20806322;28;20057;-75
2023/06/08 06:50:45;;;;;;;10.32;6.25;;;;;;;26.74;100.00;100849.97;20809526;28;20052;-75
2023/06/08 07:01:09;;;;;;;9.85;5.28;;;;;;;27.25;100.00;100849.16;20817841;28;20488;-75
2023/06/08 07:11:32;;;;;;;9.68;4.97;;;;;;;27.41;100.00;100848.38;20814471;28;20056;-74
2023/06/08 07:21:55;;;;;;;7.63;4.70;;;;;;;28.98;100.00;100835.94;20779049;28;20506;-75
2023/06/08 07:32:18;;;;;;;13.10;4.97;;;;;;;28.92;100.00;100839.00;20787366;28;20398;-74
2023/06/08 07:42:43;;;;;;;8.65;4.60;;;;;;;29.81;100.00;100834.47;20804158;28;20081;-74
2023/06/08 07:53:05;;;;;;;10.18;4.50;;;;;;;29.85;100.00;100842.38;20836190;28;20107;-74
2023/06/08 08:03:30;;;;;;;8.43;4.05;;;;;;;29.67;100.00;100851.66;20803448;28;20041;-75
2023/06/08 08:13:52;;;;;;;10.50;4.18;;;;;;;29.80;100.00;100844.47;20805755;28;20490;-75
2023/06/08 08:24:16;;;;;;;8.27;4.40;;;;;;;29.70;100.00;100851.47;20790175;28;20188;-75
2023/06/08 08:34:39;;;;;;;10.15;3.60;;;;;;;29.90;100.00;100850.22;20785722;28;20041;-74
2023/06/08 08:45:05;;;;;;;11.27;4.82;;;;;;;30.33;100.00;100853.81;20799982;28;20139;-75
2023/06/08 08:55:28;;;;;;;9.02;4.10;;;;;;;30.38;100.00;100835.34;20800332;28;20124;-75
2023/06/08 09:05:53;;;;;;;9.00;4.25;;;;;;;30.73;100.00;100824.84;20784723;28;20053;-73
2023/06/08 09:16:19;;;;;;;8.65;3.65;;;;;;;30.99;96.44;100815.75;20810210;28;20057;-74
2023/06/08 09:26:47;;;;;;;7.03;3.60;;;;;;;31.27;84.22;100806.59;20815270;28;20055;-74
2023/06/08 09:37:11;;;;;;;10.13;4.45;;;;;;;31.50;84.19;100805.84;20816868;28;20061;-73
2023/06/08 09:47:35;;;;;;;8.05;4.18;;;;;;;31.85;90.45;100807.94;20810222;28;20502;-75
2023/06/08 09:57:59;;;;;;;10.88;4.40;;;;;;;31.77;91.25;100805.75;20801745;28;20107;-74
2023/06/08 10:08:25;;;;;;;8.75;3.88;;;;;;;31.54;86.09;100801.91;20818344;28;20060;-76
2023/06/08 10:18:48;;;;;;;9.73;4.13;;;;;;;31.40;85.72;100782.03;20808453;28;20046;-75
2023/06/08 10:29:13;;;;;;;7.13;3.83;;;;;;;31.57;78.07;100768.91;20800397;28;20053;-74
2023/06/08 10:39:22;;;;;;;8.27;3.58;;;;;;;31.33;77.54;100769.78;20809061;28;20056;-74
2023/06/08 10:49:52;;;;;;;8.07;4.03;;;;;;;31.28;82.58;100748.31;20806748;28;20053;-75
2023/06/08 11:00:42;;;;;;;8.77;4.40;;;;;;;31.10;84.39;100741.41;20813769;28;20512;-74
2023/06/08 11:11:06;;;;;;;7.82;3.72;;;;;;;31.53;78.30;100745.56;20796907;28;20394;-72
2023/06/08 11:21:29;;;;;;;11.82;4.50;;;;;;;31.54;79.96;100749.16;20798642;28;20056;-74
2023/06/08 11:31:53;;;;;;;7.72;3.90;;;;;;;31.08;81.81;100757.00;20763889;28;20555;-74
2023/06/08 11:42:16;;;;;;;11.63;5.35;;;;;;;31.04;81.99;100753.59;20792752;28;20046;-74
2023/06/08 11:52:42;;;;;;;10.00;4.30;;;;;;;30.92;88.40;100751.69;20790999;28;20052;-74
2023/06/08 12:03:07;;;;;;;8.77;5.03;;;;;;;30.58;98.42;100765.91;20802580;28;20069;-73
2023/06/08 12:13:31;;;;;;;9.75;4.93;;;;;;;30.45;100.00;100760.38;20788019;28;20052;-74
2023/06/08 12:23:53;;;;;;;9.48;4.63;;;;;;;30.93;97.43;100755.31;20798427;28;20103;-74
2023/06/08 12:34:18;;;;;;;10.77;4.55;;;;;;;31.34;98.87;100763.38;20796221;28;20065;-74
2023/06/08 12:44:41;;;;;;;10.57;4.05;;;;;;;31.27;91.68;100750.16;20795812;28;20085;-75
2023/06/08 12:55:06;;;;;;;8.35;3.90;;;;;;;31.28;86.66;100737.38;20799789;28;20068;-73
2023/06/08 13:05:29;;;;;;;;;;;;;;;31.25;87.48;100740.31;20814731;28;20468;-74
2023/06/08 13:15:53;;;;;;;6.90;3.92;;;;;;;31.00;70.43;100718.44;20818532;28;19921;-74
2023/06/08 13:26:17;;;;;;;9.98;4.80;;;;;;;30.06;77.49;100718.44;20787623;28;20108;-73
2023/06/08 13:36:43;;;;;;;8.45;3.83;;;;;;;29.67;83.48;100715.56;20820131;28;20055;-72
2023/06/08 13:47:06;;;;;;;9.70;4.57;;;;;;;29.77;96.71;100711.28;20811764;28;20191;-73
2023/06/08 13:57:30;;;;;;;7.70;4.28;;;;;;;30.73;84.83;100692.13;20808415;28;20045;-73
2023/06/08 14:07:53;;;;;;;8.77;3.78;;;;;;;31.19;71.44;100684.34;20822287;28;20065;-73
2023/06/08 14:18:17;;;;;;;8.93;3.85;;;;;;;30.85;72.39;100664.00;20822230;28;20493;-73
2023/06/08 14:28:42;;;;;;;7.93;4.05;;;;;;;31.02;72.94;100654.63;20806062;28;20050;-74
2023/06/08 14:39:05;;;;;;;9.10;3.85;;;;;;;30.63;75.37;100631.06;20822848;28;20061;-73
2023/06/08 14:49:08;;;;;;;8.55;3.65;;;;;;;30.35;71.45;100633.91;20821378;28;20049;-73
2023/06/08 14:59:32;;;;;;;12.77;4.30;;;;;;;30.07;80.32;100634.91;20774431;28;20410;-74
2023/06/08 15:09:54;;;;;;;8.40;4.20;;;;;;;30.23;80.05;100629.28;20806948;28;20077;-73
2023/06/08 15:20:18;;;;;;;10.73;4.20;;;;;;;30.18;76.08;100621.44;20790250;28;20356;-74
2023/06/08 15:30:41;;;;;;;9.88;4.95;;;;;;;29.95;77.66;100625.72;20812760;28;20669;-73
2023/06/08 15:41:05;;;;;;;9.90;4.72;;;;;;;29.17;81.02;100638.03;20783747;28;20108;-73
2023/06/08 15:51:29;;;;;;;11.77;4.65;;;;;;;28.52;85.34;100637.56;20764325;28;20068;-73
2023/06/08 16:01:37;;;;;;;11.60;5.03;;;;;;;27.84;95.13;100625.31;20808764;28;20457;-73
2023/06/08 16:12:00;;;;;;;12.27;5.40;;;;;;;27.46;95.18;100638.31;20787878;28;20049;-72
2023/06/08 16:22:24;;;;;;;11.02;4.95;;;;;;;27.13;97.02;100632.06;20813761;28;20441;-73
2023/06/08 16:32:46;;;;;;;12.48;5.65;;;;;;;26.85;100.00;100633.53;20822171;28;20151;-73
2023/06/08 16:43:10;;;;;;;11.00;5.50;;;;;;;26.44;100.00;100638.44;20820945;28;20045;-73
2023/06/08 16:53:33;;;;;;;13.70;5.47;;;;;;;26.16;100.00;100647.06;20800137;28;20053;-74
2023/06/08 17:03:57;;;;;;;9.70;5.75;;;;;;;26.02;100.00;100649.59;20837421;28;20049;-73
2023/06/08 17:14:20;;;;;;;14.88;7.45;;;;;;;25.71;100.00;100654.75;20827585;28;20053;-73
2023/06/08 17:24:43;;;;;;;12.73;7.05;;;;;;;25.49;100.00;100671.09;20836395;28;20571;-74
2023/06/08 17:35:06;;;;;;;15.73;7.45;;;;;;;25.24;100.00;100681.31;20837891;28;20058;-74
2023/06/08 17:45:31;;;;;;;15.20;7.32;;;;;;;24.94;100.00;100684.44;20792374;28;20379;-74
2023/06/08 17:55:54;;;;;;;16.38;8.00;;;;;;;24.70;100.00;100699.00;20800148;28;20045;-73
2023/06/08 18:06:18;;;;;;;10.88;6.97;;;;;;;24.50;100.00;100693.59;20813587;28;20073;-74
2023/06/08 18:16:40;;;;;;;15.50;7.53;;;;;;;24.32;100.00;100708.75;20805990;28;20107;-74
2023/06/08 18:27:05;;;;;;;11.18;7.63;;;;;;;24.11;100.00;100709.59;20822823;28;20065;-74
2023/06/08 18:37:28;;;;;;;13.43;7.88;;;;;;;23.96;100.00;100713.78;20818466;28;20454;-74
2023/06/08 18:47:52;;;;;;;13.93;8.15;;;;;;;23.76;100.00;100727.22;20818252;28;20049;-74
2023/06/08 18:58:17;;;;;;;12.40;8.73;;;;;;;23.60;100.00;100735.03;20817966;28;20065;-73
2023/06/08 19:08:41;;;;;;;15.50;8.77;;;;;;;23.48;100.00;100745.38;20812966;28;20049;-74
2023/06/08 19:19:06;;;;;;;13.73;8.18;;;;;;;23.23;100.00;100753.47;20813676;28;20058;-74
2023/06/08 19:29:30;;;;;;;13.48;7.60;;;;;;;23.02;100.00;100758.69;20814465;28;20468;-75
2023/06/08 19:39:52;;;;;;;15.93;8.68;;;;;;;22.91;100.00;100768.94;20822628;28;20045;-74
2023/06/08 19:50:16;;;;;;;14.63;8.65;;;;;;;22.74;100.00;100771.34;20813121;28;20506;-75
2023/06/08 20:00:38;;;;;;;14.60;8.02;;;;;;;22.58;100.00;100762.88;20807290;28;20045;-73
2023/06/08 20:10:55;;;;;;;11.63;8.57;;;;;;;22.49;100.00;100754.25;20803388;28;20533;-74
2023/06/08 20:21:17;;;;;;;14.50;8.57;;;;;;;22.33;100.00;100767.31;20828741;28;20072;-74
2023/06/08 20:31:41;;;;;;;12.55;8.30;;;;;;;22.25;100.00;100753.28;20798395;28;20045;-73
2023/06/08 20:42:04;;;;;;;13.23;8.70;;;;;;;22.18;100.00;100760.66;20785195;28;20076;-75
2023/06/08 20:52:28;;;;;;;16.77;9.65;;;;;;;22.10;100.00;100760.00;20747063;28;20053;-75
2023/06/08 21:02:52;;;;;;;17.63;8.98;;;;;;;22.03;100.00;100744.13;20812086;28;20058;-75
2023/06/08 21:13:16;;;;;;;15.40;9.57;;;;;;;21.89;100.00;100749.91;20817206;28;20056;-75
2023/06/08 21:23:38;;;;;;;14.13;9.23;;;;;;;21.72;100.00;100741.47;20821222;28;20045;-75
2023/06/08 21:34:02;;;;;;;15.82;9.60;;;;;;;21.74;100.00;100750.34;20784597;28;20542;-75
2023/06/08 21:44:25;;;;;;;12.02;8.52;;;;;;;21.61;100.00;100755.22;20813634;28;20410;-75
2023/06/08 21:54:45;;;;;;;14.20;9.90;;;;;;;21.50;100.00;100745.72;20821264;28;20057;-74
2023/06/08 22:05:08;;;;;;;14.13;10.40;;;;;;;21.37;100.00;100745.22;20817260;28;20053;-75
2023/06/08 22:15:32;;;;;;;15.82;10.57;;;;;;;21.35;100.00;100755.09;20803812;28;20095;-74
2023/06/08 22:25:55;;;;;;;15.27;9.80;;;;;;;21.25;100.00;100762.56;20801286;28;20049;-75
2023/06/08 22:36:19;;;;;;;16.67;10.00;;;;;;;21.12;100.00;100755.72;20809179;28;20260;-74
2023/06/08 22:46:42;;;;;;;15.75;10.77;;;;;;;21.06;100.00;100756.78;20796860;28;20135;-75
2023/06/08 22:57:07;;;;;;;16.38;10.65;;;;;;;20.89;100.00;100747.41;20814939;28;20045;-74
2023/06/08 23:07:30;;;;;;;14.48;9.68;;;;;;;20.83;100.00;100742.22;20813994;28;20041;-74
2023/06/08 23:17:53;;;;;;;15.35;10.05;;;;;;;20.70;100.00;100736.28;20799680;28;20414;-75
2023/06/08 23:28:16;;;;;;;17.10;12.13;;;;;;;20.74;100.00;100711.16;20796183;28;20049;-74
2023/06/08 23:38:40;;;;;;;15.10;11.43;;;;;;;20.63;100.00;100699.81;20816312;28;20398;-75
2023/06/08 23:49:02;;;;;;;17.52;11.45;;;;;;;20.57;100.00;100689.25;20795153;28;20410;-75
2023/06/08 23:59:26;;;;;;;14.40;10.48;;;;;;;20.34;100.00;100675.56;20794106;28;20620;-73
